Latest Weather Observations for West Roebuck

IDW60801

Issued at 4:33 am WST Sunday 31 July 2016 (issued every 30 minutes, with the page automatically refreshed every 10 minutes)

About weather observations | Map of weather stations | Latest weather observations for WA | Other Formats
Station Details ID: 003096 Name: WEST ROEBUCK Lat: -17.90 Lon: 122.31 Height: 32.0 m
Data from the previous 72 hours. | See also: Recent months at West Roebuck
Date/Time
WST
Temp
°C
App
Temp
°C
Dew
Point
°C
Rel
Hum
%
Delta-T
°C
Wind Press
QNH
hPa
Press
MSL
hPa
Rain since
9am
mm
Dir  Spd
km/h
Gust
km/h
Spd
kts
Gust
kts
31/04:30am 14.1 - - - - CALM 0 0 0 0 - - 0.0
31/04:00am 13.9 - - - - W 6 7 3 4 - - 0.0
31/03:30am 14.6 - - - - W 7 9 4 5 - - 0.0
31/03:00am 15.1 - - - - NW 7 9 4 5 - - 0.0
31/02:30am 13.6 - - - - NNW 7 9 4 5 - - 0.0
31/02:00am 14.4 - - - - CALM 0 0 0 0 - - 0.0
31/01:30am 14.5 - - - - CALM 0 0 0 0 - - 0.0
31/01:00am 15.0 - - - - CALM 0 0 0 0 - - 0.0
31/12:30am 14.7 - - - - CALM 0 0 0 0 - - 0.0
31/12:00am 15.6 - - - - WSW 6 7 3 4 - - 0.0
 
Date/Time
WST
Temp
°C
App
Temp
°C
Dew
Point
°C
Rel
Hum
%
Delta-T
°C
Wind Press
QNH
hPa
Press
MSL
hPa
Rain since
9am
mm
Dir  Spd
km/h
Gust
km/h
Spd
kts
Gust
kts
30/11:30pm 15.6 - - - - CALM 0 0 0 0 - - 0.0
30/11:00pm 16.5 - - - - SW 4 6 2 3 - - 0.0
30/10:30pm 16.8 - - - - NW 9 9 5 5 - - 0.0
30/10:00pm 18.7 - - - - NW 9 13 5 7 - - 0.0
30/09:30pm 19.1 - - - - NNW 11 15 6 8 - - 0.0
30/09:00pm 18.5 - - - - NNW 11 13 6 7 - - 0.0
30/08:30pm 19.8 - - - - NNW 9 13 5 7 - - 0.0
30/08:00pm 20.0 - - - - NNW 11 13 6 7 - - 0.0
30/07:30pm 21.5 - - - - NNW 9 13 5 7 - - 0.0
30/07:00pm 22.2 - - - - NNW 11 13 6 7 - - 0.0
30/06:30pm 23.5 - - - - NNW 9 13 5 7 - - 0.0
30/06:00pm 25.7 - - - - NNW 11 20 6 11 - - 0.0
30/05:30pm 28.1 - - - - ENE 9 13 5 7 - - 0.0
30/05:00pm 30.8 - - - - ENE 11 19 6 10 - - 0.0
30/04:30pm 32.0 - - - - NE 15 24 8 13 - - 0.0
30/04:00pm 32.5 - - - - ENE 15 22 8 12 - - 0.0
30/03:30pm 32.7 - - - - NE 13 26 7 14 - - 0.0
30/03:00pm 33.0 - - - - NE 17 26 9 14 - - 0.0
30/02:30pm 33.0 - - - - NE 17 26 9 14 - - 0.0
30/02:00pm 32.5 - - - - E 17 32 9 17 - - 0.0
30/01:30pm 33.2 - - - - ENE 20 35 11 19 - - 0.0
30/01:00pm 32.5 - - - - ENE 20 37 11 20 - - 0.0
30/12:30pm 32.2 - - - - E 17 32 9 17 - - 0.0
30/12:00pm 31.9 - - - - ESE 22 37 12 20 - - 0.0
30/11:30am 31.3 - - - - ESE 20 32 11 17 - - 0.0
30/11:00am 30.9 - - - - ESE 22 35 12 19 - - 0.0
30/10:30am 30.5 - - - - E 22 35 12 19 - - 0.0
30/10:00am 29.3 - - - - E 19 30 10 16 - - 0.0
30/09:30am 28.0 - - - - E 15 24 8 13 - - 0.0
30/09:00am 25.8 - - - - E 17 30 9 16 - - 0.0
30/08:30am 24.1 - - - - E 17 26 9 14 - - 0.0
30/08:00am 20.9 - - - - E 11 20 6 11 - - 0.0
30/07:30am 15.9 - - - - E 9 13 5 7 - - 0.0
30/07:00am 11.8 - - - - E 9 11 5 6 - - 0.0
30/06:30am 10.2 - - - - E 11 13 6 7 - - 0.0
30/06:00am 11.4 - - - - ENE 9 13 5 7 - - 0.0
30/05:30am 11.0 - - - - ENE 9 13 5 7 - - 0.0
30/05:00am 11.2 - - - - E 9 11 5 6 - - 0.0
30/04:30am 11.3 - - - - E 11 13 6 7 - - 0.0
30/04:00am 11.1 - - - - E 11 13 6 7 - - 0.0
30/03:30am 11.0 - - - - E 11 13 6 7 - - 0.0
30/03:00am 11.3 - - - - ESE 11 13 6 7 - - 0.0
30/02:30am 13.3 - - - - SSE 7 11 4 6 - - 0.0
30/02:00am 13.9 - - - - WNW 2 6 1 3 - - 0.0
30/01:30am 14.2 - - - - WNW 7 7 4 4 - - 0.0
30/01:00am 14.4 - - - - NNW 7 9 4 5 - - 0.0
30/12:30am 15.3 - - - - WSW 7 9 4 5 - - 0.0
30/12:00am 15.8 - - - - W 7 9 4 5 - - 0.0
 
Date/Time
WST
Temp
°C
App
Temp
°C
Dew
Point
°C
Rel
Hum
%
Delta-T
°C
Wind Press
QNH
hPa
Press
MSL
hPa
Rain since
9am
mm
Dir  Spd
km/h
Gust
km/h
Spd
kts
Gust
kts
29/11:30pm 16.1 - - - - W 7 9 4 5 - - 0.0
29/11:00pm 16.3 - - - - W 9 9 5 5 - - 0.0
29/10:30pm 16.5 - - - - WNW 7 9 4 5 - - 0.0
29/10:00pm 17.6 - - - - WSW 9 11 5 6 - - 0.0
29/09:30pm 17.8 - - - - NW 7 9 4 5 - - 0.0
29/09:00pm 17.6 - - - - NW 9 11 5 6 - - 0.0
29/08:30pm 20.3 - - - - W 7 11 4 6 - - 0.0
29/08:00pm 20.9 - - - - NNW 9 13 5 7 - - 0.0
29/07:30pm 21.7 - - - - NNW 9 13 5 7 - - 0.0
29/07:00pm 22.9 - - - - NNW 9 13 5 7 - - 0.0
29/06:30pm 21.9 - - - - S 4 6 2 3 - - 0.0
29/06:00pm 25.3 - - - - SSW 7 9 4 5 - - 0.0
29/05:30pm 28.3 - - - - SSE 7 9 4 5 - - 0.0
29/05:00pm 31.1 - - - - E 9 19 5 10 - - 0.0
29/04:30pm 32.1 - - - - E 11 19 6 10 - - 0.0
29/04:00pm 32.6 - - - - E 9 13 5 7 - - 0.0
29/03:30pm 32.9 - - - - ESE 11 22 6 12 - - 0.0
29/03:00pm 33.0 - - - - E 13 26 7 14 - - 0.0
29/02:30pm 32.7 - - - - SE 15 24 8 13 - - 0.0
29/02:00pm 32.7 - - - - E 17 28 9 15 - - 0.0
29/01:30pm 32.9 - - - - E 19 28 10 15 - - 0.0
29/01:00pm 32.2 - - - - ENE 15 28 8 15 - - 0.0
29/12:30pm 31.7 - - - - NNE 17 28 9 15 - - 0.0
29/12:00pm 31.3 - - - - NE 19 32 10 17 - - 0.0
29/11:30am 30.8 - - - - NNE 19 37 10 20 - - 0.0
29/11:00am 29.8 - - - - NNE 20 32 11 17 - - 0.0
29/10:30am 29.1 - - - - ENE 24 33 13 18 - - 0.0
29/10:00am 27.8 - - - - ENE 20 32 11 17 - - 0.0
29/09:30am 26.5 - - - - ENE 24 33 13 18 - - 0.0
29/09:00am 25.6 - - - - E 20 37 11 20 - - 0.0
29/08:30am 23.8 - - - - E 20 33 11 18 - - 0.0
29/08:00am 21.4 - - - - E 20 33 11 18 - - 0.0
29/07:30am 18.2 - - - - E 11 17 6 9 - - 0.0
29/07:00am 15.1 - - - - E 11 13 6 7 - - 0.0
29/06:30am 13.4 - - - - E 11 13 6 7 - - 0.0
29/06:00am 13.7 - - - - E 13 15 7 8 - - 0.0
29/05:30am 14.2 - - - - E 11 17 6 9 - - 0.0
29/05:00am 14.4 - - - - E 11 13 6 7 - - 0.0
29/04:30am 16.1 - - - - E 13 17 7 9 - - 0.0
29/04:00am 16.4 - - - - E 13 17 7 9 - - 0.0
29/03:30am 14.7 - - - - E 11 13 6 7 - - 0.0
29/03:00am 16.0 - - - - E 11 13 6 7 - - 0.0
29/02:30am 16.6 - - - - E 13 17 7 9 - - 0.0
29/02:00am 13.4 - - - - E 11 13 6 7 - - 0.0
29/01:30am 12.6 - - - - E 11 13 6 7 - - 0.0
29/01:00am 13.7 - - - - ESE 9 11 5 6 - - 0.0
29/12:30am 14.1 - - - - E 11 11 6 6 - - 0.0
29/12:00am 14.0 - - - - E 9 11 5 6 - - 0.0
 
Date/Time
WST
Temp
°C
App
Temp
°C
Dew
Point
°C
Rel
Hum
%
Delta-T
°C
Wind Press
QNH
hPa
Press
MSL
hPa
Rain since
9am
mm
Dir  Spd
km/h
Gust
km/h
Spd
kts
Gust
kts
28/11:30pm 15.0 - - - - E 9 11 5 6 - - 0.0
28/11:00pm 16.7 - - - - ESE 9 9 5 5 - - 0.0
28/10:30pm 18.7 - - - - SE 11 13 6 7 - - 0.0
28/10:00pm 19.9 - - - - SE 11 17 6 9 - - 0.0
28/09:30pm 20.1 - - - - ESE 11 17 6 9 - - 0.0
28/09:00pm 19.7 - - - - S 9 11 5 6 - - 0.0
28/08:30pm 20.7 - - - - S 11 13 6 7 - - 0.0
28/08:00pm 21.0 - - - - S 13 15 7 8 - - 0.0
28/07:30pm 20.6 - - - - S 11 15 6 8 - - 0.0
28/07:00pm 20.4 - - - - S 9 15 5 8 - - 0.0
28/06:30pm 22.0 - - - - S 9 11 5 6 - - 0.0
28/06:00pm 24.0 - - - - S 7 9 4 5 - - 0.0
28/05:30pm 27.3 - - - - SSE 9 13 5 7 - - 0.0
28/05:00pm 30.1 - - - - SSE 13 19 7 10 - - 0.0
28/04:30pm 31.2 - - - - S 17 22 9 12 - - 0.0
28/04:00pm 32.0 - - - - S 15 20 8 11 - - 0.0
28/03:30pm 32.1 - - - - S 15 24 8 13 - - 0.0
28/03:00pm 32.5 - - - - SE 13 19 7 10 - - 0.0
28/02:30pm 32.7 - - - - SE 11 19 6 10 - - 0.0
28/02:00pm 33.0 - - - - SSW 9 15 5 8 - - 0.0
28/01:30pm 32.1 - - - - SE 9 20 5 11 - - 0.0
28/01:00pm 32.1 - - - - ESE 13 24 7 13 - - 0.0
28/12:30pm 32.0 - - - - E 15 24 8 13 - - 0.0
28/12:00pm 31.2 - - - - E 17 26 9 14 - - 0.0
28/11:30am 31.0 - - - - E 19 30 10 16 - - 0.0
28/11:00am 30.5 - - - - E 19 28 10 15 - - 0.0
28/10:30am 29.8 - - - - E 22 32 12 17 - - 0.0
28/10:00am 28.7 - - - - E 20 32 11 17 - - 0.0
28/09:30am 27.3 - - - - E 24 37 13 20 - - 0.0
28/09:00am 26.4 - - - - E 24 37 13 20 - - 0.0
28/08:30am 25.4 - - - - E 22 32 12 17 - - 0.0
28/08:00am 23.9 - - - - E 20 30 11 16 - - 0.0
28/07:30am 22.4 - - - - E 20 33 11 18 - - 0.0
28/07:00am 20.8 - - - - E 17 28 9 15 - - 0.0
28/06:30am 20.0 - - - - E 17 24 9 13 - - 0.0
28/06:00am 20.2 - - - - E 17 28 9 15 - - 0.0
28/05:30am 20.5 - - - - E 17 24 9 13 - - 0.0
28/05:00am 20.7 - - - - E 17 30 9 16 - - 0.0

Other Formats:

Comma delimited format used in spreadsheet applications
http://www.bom.gov.au/fwo/IDW60801/IDW60801.95204.axf

JavaScript Object Notation format (JSON) in row-major order
http://www.bom.gov.au/fwo/IDW60801/IDW60801.95204.json